Raymond, MT (59256)

4:40 AM MDT on September 19, 2014 (GMT -0600)
MesoWest Comertown Turn-Off MT-5 MP 13.4 MT US MT DOT | Change Station
CLOSE
Current Station
Personal Weather Station
Location: Westby, MT
Elevation: 2100 ft
Nearby Weather Stations

Elev 2100 ft 48.81 °N, 104.25 °W | Updated 59 minutes ago

Mostly Cloudy
Mostly Cloudy
65 °F
Feels Like 65 °F
N
15
Wind Variable Wind from West
Gusts 20.0 mph

Today
High -- | Low -- °F
--% Chance of Precip.
Yesterday
High -- | Low -- °F
Precip. -- in
6:40 AM 7:02 PM
Waning Crescent, 20% visible
Pressure 29.53 in
Visibility 10.0 miles
Clouds Few 11000 ft
Dew Point 50 °F
Humidity 58%
Rainfall 0.00 in
Snow Depth 0 in , 0 in , 0 in
UV 0 out of 12
Pollen 5.10 out of 12
Air Quality Not available.
Flu Activity Not available.
METAR KD50 191035Z AUTO 27013KT 10SM FEW110 18/11 A2953 RMK AO2

More Conditions Fewer Conditions

Pressure 29.53 in
Visibility 10.0 miles
Clouds Few 11000 ft
Dew Point 50 °F
Humidity 58%
Rainfall 0.00 in
Snow Depth 0 in , 0 in , 0 in
UV 0 out of 12
Pollen 5.10 out of 12
Air Quality Not available.
Flu Activity Not available.
METAR KD50 191035Z AUTO 27013KT 10SM FEW110 18/11 A2953 RMK AO2

More Conditions Fewer Conditions

10-Day Weather Forecast

Almanac

Astronomy

Sep. 19, 2014 Rise Set
Actual Time 6:40 AM MDT 7:02 PM MDT
Civil Twilight 6:09 AM MDT 7:33 PM MDT
Nautical Twilight 5:31 AM MDT 8:11 PM MDT
Astronomical Twilight 4:52 AM MDT 8:49 PM MDT
Moon 2:11 AM MDT 4:47 PM MDT
Length of Visible Light 13h 24m
Length of Day
12h 21m
Tomorrow will be 3m 32s shorter.
Waning Crescent, 20% of the Moon is Illuminated
Today
Waning Crescent
Sep 24
New
Oct 1
First Quarter
Oct 8
Full
Oct 15
Last Quarter

Today's Extremes

State Highs State Lows

Community

WunderPhotos

Upload Photos

1,754,591 photos uploaded!

Nearby

Snow Depth

Station Depth Elevation
Bloody Dick 0 in 7550 ft
Hoodoo Basin 0 in 6050 ft
Kraft Creek 0 in 4750 ft
Lakeview Ridge 0 in 7400 ft
Wood Creek 1 in 5960 ft

Earthquake Activity

City Distance Mag. Time & Date
No recent earthquake activity has been reported nearby.
Minimum magnitude displayed is 2.5.

Coastal Water Temperatures

Place Temperature
No Stations Reporting

Nearby Weather Stations